sensor_id;sensor_type;location;lat;lon;timestamp;P1;durP1;ratioP1;P2;durP2;ratioP2
68543;SDS011;55534;52.222;5.156;2023-07-20T00:01:05;1.70;;;0.68;;
68543;SDS011;55534;52.222;5.156;2023-07-20T00:03:30;0.95;;;0.70;;
68543;SDS011;55534;52.222;5.156;2023-07-20T00:05:56;1.13;;;0.73;;
68543;SDS011;55534;52.222;5.156;2023-07-20T00:08:21;1.58;;;0.60;;
68543;SDS011;55534;52.222;5.156;2023-07-20T00:10:46;1.02;;;0.80;;
68543;SDS011;55534;52.222;5.156;2023-07-20T00:13:12;1.48;;;1.02;;
68543;SDS011;55534;52.222;5.156;2023-07-20T00:15:37;1.02;;;0.60;;
68543;SDS011;55534;52.222;5.156;2023-07-20T00:18:03;1.02;;;0.60;;
68543;SDS011;55534;52.222;5.156;2023-07-20T00:20:29;1.48;;;0.55;;
68543;SDS011;55534;52.222;5.156;2023-07-20T00:22:54;1.95;;;0.70;;
68543;SDS011;55534;52.222;5.156;2023-07-20T00:25:20;1.20;;;0.70;;
68543;SDS011;55534;52.222;5.156;2023-07-20T00:27:45;1.92;;;0.60;;
68543;SDS011;55534;52.222;5.156;2023-07-20T00:30:11;1.52;;;0.60;;
68543;SDS011;55534;52.222;5.156;2023-07-20T00:32:36;5.20;;;1.50;;
68543;SDS011;55534;52.222;5.156;2023-07-20T00:35:02;0.57;;;0.47;;
68543;SDS011;55534;52.222;5.156;2023-07-20T00:37:28;1.20;;;0.65;;
68543;SDS011;55534;52.222;5.156;2023-07-20T00:39:54;2.83;;;0.70;;
68543;SDS011;55534;52.222;5.156;2023-07-20T00:42:19;3.97;;;1.33;;
68543;SDS011;55534;52.222;5.156;2023-07-20T00:44:44;1.83;;;0.57;;
68543;SDS011;55534;52.222;5.156;2023-07-20T00:47:10;1.00;;;0.80;;
68543;SDS011;55534;52.222;5.156;2023-07-20T00:49:35;1.33;;;0.65;;
68543;SDS011;55534;52.222;5.156;2023-07-20T00:52:01;2.38;;;0.85;;
68543;SDS011;55534;52.222;5.156;2023-07-20T00:54:27;1.33;;;0.82;;
68543;SDS011;55534;52.222;5.156;2023-07-20T00:56:53;2.88;;;1.17;;
68543;SDS011;55534;52.222;5.156;2023-07-20T00:59:18;0.80;;;0.70;;
68543;SDS011;55534;52.222;5.156;2023-07-20T01:01:43;2.00;;;1.10;;
68543;SDS011;55534;52.222;5.156;2023-07-20T01:04:09;1.02;;;0.90;;
68543;SDS011;55534;52.222;5.156;2023-07-20T01:09:26;1.55;;;0.98;;
68543;SDS011;55534;52.222;5.156;2023-07-20T01:14:27;1.30;;;1.20;;
68543;SDS011;55534;52.222;5.156;2023-07-20T01:16:52;1.95;;;1.10;;
68543;SDS011;55534;52.222;5.156;2023-07-20T01:19:18;2.05;;;1.05;;
68543;SDS011;55534;52.222;5.156;2023-07-20T01:24:19;2.30;;;1.20;;
68543;SDS011;55534;52.222;5.156;2023-07-20T01:29:18;1.58;;;1.00;;
68543;SDS011;55534;52.222;5.156;2023-07-20T01:31:48;1.95;;;1.35;;
68543;SDS011;55534;52.222;5.156;2023-07-20T01:34:15;2.13;;;1.30;;
68543;SDS011;55534;52.222;5.156;2023-07-20T01:36:42;1.80;;;1.20;;
68543;SDS011;55534;52.222;5.156;2023-07-20T01:39:08;2.97;;;1.52;;
68543;SDS011;55534;52.222;5.156;2023-07-20T01:41:34;3.80;;;1.40;;
68543;SDS011;55534;52.222;5.156;2023-07-20T01:44:00;2.42;;;1.60;;
68543;SDS011;55534;52.222;5.156;2023-07-20T01:46:26;3.15;;;1.33;;
68543;SDS011;55534;52.222;5.156;2023-07-20T01:48:53;3.58;;;1.40;;
68543;SDS011;55534;52.222;5.156;2023-07-20T01:51:19;2.72;;;1.38;;
68543;SDS011;55534;52.222;5.156;2023-07-20T01:53:47;2.05;;;1.20;;
68543;SDS011;55534;52.222;5.156;2023-07-20T01:56:13;3.17;;;1.40;;
68543;SDS011;55534;52.222;5.156;2023-07-20T01:58:38;2.15;;;1.20;;
68543;SDS011;55534;52.222;5.156;2023-07-20T02:01:04;3.33;;;1.60;;
68543;SDS011;55534;52.222;5.156;2023-07-20T02:03:29;3.53;;;1.67;;
68543;SDS011;55534;52.222;5.156;2023-07-20T02:05:55;2.22;;;1.25;;
68543;SDS011;55534;52.222;5.156;2023-07-20T02:08:22;2.45;;;1.25;;
68543;SDS011;55534;52.222;5.156;2023-07-20T02:10:47;1.83;;;1.40;;
68543;SDS011;55534;52.222;5.156;2023-07-20T02:13:13;2.60;;;1.73;;
68543;SDS011;55534;52.222;5.156;2023-07-20T02:15:38;2.20;;;1.30;;
68543;SDS011;55534;52.222;5.156;2023-07-20T02:18:04;2.25;;;1.48;;
68543;SDS011;55534;52.222;5.156;2023-07-20T02:20:33;6.25;;;1.70;;
68543;SDS011;55534;52.222;5.156;2023-07-20T02:22:58;4.82;;;1.75;;
68543;SDS011;55534;52.222;5.156;2023-07-20T02:25:24;1.92;;;1.40;;
68543;SDS011;55534;52.222;5.156;2023-07-20T02:27:49;2.38;;;2.17;;
68543;SDS011;55534;52.222;5.156;2023-07-20T02:30:14;3.90;;;1.65;;
68543;SDS011;55534;52.222;5.156;2023-07-20T02:32:41;5.57;;;1.50;;
68543;SDS011;55534;52.222;5.156;2023-07-20T02:35:10;2.13;;;1.35;;
68543;SDS011;55534;52.222;5.156;2023-07-20T02:37:36;2.92;;;1.50;;
68543;SDS011;55534;52.222;5.156;2023-07-20T02:40:02;2.58;;;1.33;;
68543;SDS011;55534;52.222;5.156;2023-07-20T02:42:29;5.38;;;2.45;;
68543;SDS011;55534;52.222;5.156;2023-07-20T02:44:54;3.35;;;1.40;;
68543;SDS011;55534;52.222;5.156;2023-07-20T02:47:19;2.40;;;1.55;;
68543;SDS011;55534;52.222;5.156;2023-07-20T02:49:45;2.70;;;1.83;;
68543;SDS011;55534;52.222;5.156;2023-07-20T02:52:11;3.45;;;1.58;;
68543;SDS011;55534;52.222;5.156;2023-07-20T02:54:36;6.60;;;1.98;;
68543;SDS011;55534;52.222;5.156;2023-07-20T02:57:01;3.65;;;1.33;;
68543;SDS011;55534;52.222;5.156;2023-07-20T02:59:28;2.33;;;1.77;;
68543;SDS011;55534;52.222;5.156;2023-07-20T03:01:54;3.97;;;1.77;;
68543;SDS011;55534;52.222;5.156;2023-07-20T03:04:20;3.53;;;1.65;;
68543;SDS011;55534;52.222;5.156;2023-07-20T03:06:46;2.92;;;1.77;;
68543;SDS011;55534;52.222;5.156;2023-07-20T03:09:12;2.85;;;2.33;;
68543;SDS011;55534;52.222;5.156;2023-07-20T03:11:37;3.13;;;1.60;;
68543;SDS011;55534;52.222;5.156;2023-07-20T03:14:03;2.15;;;1.55;;
68543;SDS011;55534;52.222;5.156;2023-07-20T03:16:28;4.22;;;1.77;;
68543;SDS011;55534;52.222;5.156;2023-07-20T03:18:53;3.40;;;1.92;;
68543;SDS011;55534;52.222;5.156;2023-07-20T03:21:19;2.22;;;1.90;;
68543;SDS011;55534;52.222;5.156;2023-07-20T03:23:44;3.85;;;2.22;;
68543;SDS011;55534;52.222;5.156;2023-07-20T03:26:10;2.30;;;1.70;;
68543;SDS011;55534;52.222;5.156;2023-07-20T03:28:38;4.32;;;1.88;;
68543;SDS011;55534;52.222;5.156;2023-07-20T03:31:04;3.67;;;2.38;;
68543;SDS011;55534;52.222;5.156;2023-07-20T03:33:33;4.60;;;1.83;;
68543;SDS011;55534;52.222;5.156;2023-07-20T03:35:59;2.83;;;1.90;;
68543;SDS011;55534;52.222;5.156;2023-07-20T03:38:24;4.55;;;2.08;;
68543;SDS011;55534;52.222;5.156;2023-07-20T03:40:50;5.28;;;2.10;;
68543;SDS011;55534;52.222;5.156;2023-07-20T03:43:16;4.03;;;2.95;;
68543;SDS011;55534;52.222;5.156;2023-07-20T03:45:42;3.45;;;2.50;;
68543;SDS011;55534;52.222;5.156;2023-07-20T03:48:07;5.22;;;2.78;;
68543;SDS011;55534;52.222;5.156;2023-07-20T03:50:33;7.55;;;4.03;;
68543;SDS011;55534;52.222;5.156;2023-07-20T03:52:58;4.25;;;2.95;;
68543;SDS011;55534;52.222;5.156;2023-07-20T03:55:24;3.83;;;2.65;;
68543;SDS011;55534;52.222;5.156;2023-07-20T03:57:49;3.03;;;2.38;;
68543;SDS011;55534;52.222;5.156;2023-07-20T04:00:16;5.55;;;3.17;;
68543;SDS011;55534;52.222;5.156;2023-07-20T04:02:41;4.63;;;3.00;;
68543;SDS011;55534;52.222;5.156;2023-07-20T04:05:07;3.45;;;3.15;;
68543;SDS011;55534;52.222;5.156;2023-07-20T04:07:32;3.63;;;3.10;;
68543;SDS011;55534;52.222;5.156;2023-07-20T04:09:57;4.95;;;2.95;;
68543;SDS011;55534;52.222;5.156;2023-07-20T04:12:22;5.45;;;3.22;;
68543;SDS011;55534;52.222;5.156;2023-07-20T04:14:48;3.03;;;2.42;;
68543;SDS011;55534;52.222;5.156;2023-07-20T04:17:13;4.18;;;2.70;;
68543;SDS011;55534;52.222;5.156;2023-07-20T04:19:39;3.38;;;2.70;;
68543;SDS011;55534;52.222;5.156;2023-07-20T04:22:04;4.40;;;2.95;;
68543;SDS011;55534;52.222;5.156;2023-07-20T04:24:29;6.18;;;3.45;;
68543;SDS011;55534;52.222;5.156;2023-07-20T04:26:55;3.67;;;3.08;;
68543;SDS011;55534;52.222;5.156;2023-07-20T04:29:20;4.57;;;4.00;;
68543;SDS011;55534;52.222;5.156;2023-07-20T04:31:45;4.40;;;3.95;;
68543;SDS011;55534;52.222;5.156;2023-07-20T04:34:11;6.38;;;4.15;;
68543;SDS011;55534;52.222;5.156;2023-07-20T04:36:36;5.53;;;4.50;;
68543;SDS011;55534;52.222;5.156;2023-07-20T04:39:03;6.32;;;4.22;;
68543;SDS011;55534;52.222;5.156;2023-07-20T04:41:34;4.43;;;4.03;;
68543;SDS011;55534;52.222;5.156;2023-07-20T04:43:59;4.53;;;4.13;;
68543;SDS011;55534;52.222;5.156;2023-07-20T04:46:29;6.35;;;4.22;;
68543;SDS011;55534;52.222;5.156;2023-07-20T04:48:55;6.68;;;4.30;;
68543;SDS011;55534;52.222;5.156;2023-07-20T04:51:21;5.28;;;4.45;;
68543;SDS011;55534;52.222;5.156;2023-07-20T04:53:49;4.30;;;3.90;;
68543;SDS011;55534;52.222;5.156;2023-07-20T04:56:15;4.88;;;3.55;;
68543;SDS011;55534;52.222;5.156;2023-07-20T04:58:41;5.32;;;4.22;;
68543;SDS011;55534;52.222;5.156;2023-07-20T05:01:07;5.88;;;3.72;;
68543;SDS011;55534;52.222;5.156;2023-07-20T05:03:34;4.15;;;2.63;;
68543;SDS011;55534;52.222;5.156;2023-07-20T05:06:00;3.22;;;2.92;;
68543;SDS011;55534;52.222;5.156;2023-07-20T05:08:25;4.97;;;2.72;;
68543;SDS011;55534;52.222;5.156;2023-07-20T05:10:52;4.22;;;2.75;;
68543;SDS011;55534;52.222;5.156;2023-07-20T05:13:17;3.60;;;2.00;;
68543;SDS011;55534;52.222;5.156;2023-07-20T05:15:42;5.43;;;2.15;;
68543;SDS011;55534;52.222;5.156;2023-07-20T05:18:11;3.22;;;1.98;;
68543;SDS011;55534;52.222;5.156;2023-07-20T05:20:37;4.53;;;2.20;;
68543;SDS011;55534;52.222;5.156;2023-07-20T05:23:02;3.55;;;1.98;;
68543;SDS011;55534;52.222;5.156;2023-07-20T05:25:28;6.63;;;1.73;;
68543;SDS011;55534;52.222;5.156;2023-07-20T05:27:53;4.75;;;1.73;;
68543;SDS011;55534;52.222;5.156;2023-07-20T05:30:20;2.80;;;1.30;;
68543;SDS011;55534;52.222;5.156;2023-07-20T05:32:46;1.70;;;1.40;;
68543;SDS011;55534;52.222;5.156;2023-07-20T05:35:19;3.67;;;1.30;;
68543;SDS011;55534;52.222;5.156;2023-07-20T05:37:45;4.95;;;1.40;;
68543;SDS011;55534;52.222;5.156;2023-07-20T05:40:10;3.42;;;1.00;;
68543;SDS011;55534;52.222;5.156;2023-07-20T05:42:37;2.15;;;0.90;;
68543;SDS011;55534;52.222;5.156;2023-07-20T05:45:02;1.27;;;0.90;;
68543;SDS011;55534;52.222;5.156;2023-07-20T05:47:28;2.22;;;0.77;;
68543;SDS011;55534;52.222;5.156;2023-07-20T05:49:54;3.67;;;0.85;;
68543;SDS011;55534;52.222;5.156;2023-07-20T05:52:19;1.42;;;0.77;;
68543;SDS011;55534;52.222;5.156;2023-07-20T05:54:45;3.08;;;0.85;;
68543;SDS011;55534;52.222;5.156;2023-07-20T05:57:10;2.17;;;0.57;;
68543;SDS011;55534;52.222;5.156;2023-07-20T05:59:35;3.05;;;0.98;;
68543;SDS011;55534;52.222;5.156;2023-07-20T06:02:01;2.30;;;0.52;;
68543;SDS011;55534;52.222;5.156;2023-07-20T06:04:26;2.97;;;0.50;;
68543;SDS011;55534;52.222;5.156;2023-07-20T06:06:52;2.47;;;0.55;;
68543;SDS011;55534;52.222;5.156;2023-07-20T06:09:17;1.73;;;0.68;;
68543;SDS011;55534;52.222;5.156;2023-07-20T06:11:44;1.88;;;0.50;;
68543;SDS011;55534;52.222;5.156;2023-07-20T06:14:09;2.70;;;0.60;;
68543;SDS011;55534;52.222;5.156;2023-07-20T06:16:34;4.28;;;0.57;;
68543;SDS011;55534;52.222;5.156;2023-07-20T06:19:00;1.58;;;0.55;;
68543;SDS011;55534;52.222;5.156;2023-07-20T06:21:26;1.10;;;0.50;;
68543;SDS011;55534;52.222;5.156;2023-07-20T06:23:51;2.42;;;0.60;;
68543;SDS011;55534;52.222;5.156;2023-07-20T06:26:16;1.75;;;0.77;;
68543;SDS011;55534;52.222;5.156;2023-07-20T06:28:41;1.02;;;0.52;;
68543;SDS011;55534;52.222;5.156;2023-07-20T06:31:07;3.10;;;0.60;;
68543;SDS011;55534;52.222;5.156;2023-07-20T06:33:32;3.53;;;0.60;;
68543;SDS011;55534;52.222;5.156;2023-07-20T06:35:57;3.28;;;0.50;;
68543;SDS011;55534;52.222;5.156;2023-07-20T06:38:23;3.72;;;1.02;;
68543;SDS011;55534;52.222;5.156;2023-07-20T06:40:49;2.70;;;0.52;;
68543;SDS011;55534;52.222;5.156;2023-07-20T06:43:14;2.70;;;0.65;;
68543;SDS011;55534;52.222;5.156;2023-07-20T06:45:40;4.57;;;1.67;;
68543;SDS011;55534;52.222;5.156;2023-07-20T06:48:05;2.00;;;0.70;;
68543;SDS011;55534;52.222;5.156;2023-07-20T06:50:31;1.90;;;0.65;;
68543;SDS011;55534;52.222;5.156;2023-07-20T06:52:56;2.15;;;0.40;;
68543;SDS011;55534;52.222;5.156;2023-07-20T06:55:22;0.88;;;0.30;;
68543;SDS011;55534;52.222;5.156;2023-07-20T06:57:47;3.17;;;0.70;;
68543;SDS011;55534;52.222;5.156;2023-07-20T07:00:13;1.05;;;0.50;;
68543;SDS011;55534;52.222;5.156;2023-07-20T07:02:38;1.30;;;0.30;;
68543;SDS011;55534;52.222;5.156;2023-07-20T07:05:04;0.43;;;0.20;;
68543;SDS011;55534;52.222;5.156;2023-07-20T07:07:29;2.38;;;0.40;;
68543;SDS011;55534;52.222;5.156;2023-07-20T07:09:54;1.75;;;0.25;;
68543;SDS011;55534;52.222;5.156;2023-07-20T07:12:20;0.60;;;0.20;;
68543;SDS011;55534;52.222;5.156;2023-07-20T07:14:45;0.43;;;0.20;;
68543;SDS011;55534;52.222;5.156;2023-07-20T07:17:10;1.23;;;0.60;;
68543;SDS011;55534;52.222;5.156;2023-07-20T07:19:35;1.00;;;0.40;;
68543;SDS011;55534;52.222;5.156;2023-07-20T07:22:01;1.13;;;0.30;;
68543;SDS011;55534;52.222;5.156;2023-07-20T07:24:26;0.90;;;0.30;;
68543;SDS011;55534;52.222;5.156;2023-07-20T07:26:53;0.68;;;0.28;;
68543;SDS011;55534;52.222;5.156;2023-07-20T07:29:18;0.40;;;0.20;;
68543;SDS011;55534;52.222;5.156;2023-07-20T07:31:43;2.27;;;0.20;;
68543;SDS011;55534;52.222;5.156;2023-07-20T07:34:08;0.27;;;0.20;;
68543;SDS011;55534;52.222;5.156;2023-07-20T07:36:34;0.43;;;0.22;;
68543;SDS011;55534;52.222;5.156;2023-07-20T07:38:59;1.23;;;0.15;;
68543;SDS011;55534;52.222;5.156;2023-07-20T07:41:25;0.32;;;0.20;;
68543;SDS011;55534;52.222;5.156;2023-07-20T07:43:50;1.45;;;0.20;;
68543;SDS011;55534;52.222;5.156;2023-07-20T07:46:16;2.15;;;0.20;;
68543;SDS011;55534;52.222;5.156;2023-07-20T07:48:41;0.55;;;0.43;;
68543;SDS011;55534;52.222;5.156;2023-07-20T07:51:07;1.65;;;0.30;;
68543;SDS011;55534;52.222;5.156;2023-07-20T07:53:32;0.98;;;0.30;;
68543;SDS011;55534;52.222;5.156;2023-07-20T07:55:58;0.63;;;0.20;;
68543;SDS011;55534;52.222;5.156;2023-07-20T07:58:23;1.83;;;0.20;;
68543;SDS011;55534;52.222;5.156;2023-07-20T08:00:51;0.45;;;0.15;;
68543;SDS011;55534;52.222;5.156;2023-07-20T08:03:16;0.13;;;0.10;;
68543;SDS011;55534;52.222;5.156;2023-07-20T08:05:42;2.50;;;0.30;;
68543;SDS011;55534;52.222;5.156;2023-07-20T08:08:07;0.43;;;0.10;;
68543;SDS011;55534;52.222;5.156;2023-07-20T08:10:33;1.13;;;0.20;;
68543;SDS011;55534;52.222;5.156;2023-07-20T08:12:59;1.52;;;0.20;;
68543;SDS011;55534;52.222;5.156;2023-07-20T08:15:24;1.10;;;0.20;;
68543;SDS011;55534;52.222;5.156;2023-07-20T08:17:49;2.40;;;0.32;;
68543;SDS011;55534;52.222;5.156;2023-07-20T08:20:16;0.88;;;0.10;;
68543;SDS011;55534;52.222;5.156;2023-07-20T08:22:42;0.68;;;0.30;;
68543;SDS011;55534;52.222;5.156;2023-07-20T08:25:08;0.57;;;0.50;;
68543;SDS011;55534;52.222;5.156;2023-07-20T08:27:34;0.63;;;0.28;;
68543;SDS011;55534;52.222;5.156;2023-07-20T08:29:59;0.63;;;0.30;;
68543;SDS011;55534;52.222;5.156;2023-07-20T08:32:25;1.45;;;0.20;;
68543;SDS011;55534;52.222;5.156;2023-07-20T08:34:50;0.80;;;0.20;;
68543;SDS011;55534;52.222;5.156;2023-07-20T08:37:15;0.28;;;0.20;;
68543;SDS011;55534;52.222;5.156;2023-07-20T08:39:41;2.00;;;0.30;;
68543;SDS011;55534;52.222;5.156;2023-07-20T08:42:06;1.33;;;0.30;;
68543;SDS011;55534;52.222;5.156;2023-07-20T08:44:32;0.45;;;0.20;;
68543;SDS011;55534;52.222;5.156;2023-07-20T08:46:58;3.22;;;0.47;;
68543;SDS011;55534;52.222;5.156;2023-07-20T08:49:23;0.47;;;0.15;;
68543;SDS011;55534;52.222;5.156;2023-07-20T08:51:49;0.57;;;0.20;;
68543;SDS011;55534;52.222;5.156;2023-07-20T08:54:15;0.60;;;0.32;;
68543;SDS011;55534;52.222;5.156;2023-07-20T08:56:41;2.28;;;0.28;;
68543;SDS011;55534;52.222;5.156;2023-07-20T08:59:07;0.45;;;0.20;;
68543;SDS011;55534;52.222;5.156;2023-07-20T09:01:33;0.70;;;0.20;;
68543;SDS011;55534;52.222;5.156;2023-07-20T09:04:00;1.33;;;0.70;;
68543;SDS011;55534;52.222;5.156;2023-07-20T09:06:25;0.30;;;0.20;;
68543;SDS011;55534;52.222;5.156;2023-07-20T09:08:50;2.03;;;0.30;;
68543;SDS011;55534;52.222;5.156;2023-07-20T09:11:16;0.65;;;0.30;;
68543;SDS011;55534;52.222;5.156;2023-07-20T09:13:42;0.68;;;0.30;;
68543;SDS011;55534;52.222;5.156;2023-07-20T09:16:07;1.25;;;0.20;;
68543;SDS011;55534;52.222;5.156;2023-07-20T09:18:33;0.93;;;0.20;;
68543;SDS011;55534;52.222;5.156;2023-07-20T09:21:03;0.47;;;0.20;;
68543;SDS011;55534;52.222;5.156;2023-07-20T09:23:35;0.80;;;0.20;;
68543;SDS011;55534;52.222;5.156;2023-07-20T09:26:01;0.30;;;0.20;;
68543;SDS011;55534;52.222;5.156;2023-07-20T09:28:40;0.45;;;0.20;;
68543;SDS011;55534;52.222;5.156;2023-07-20T09:31:11;1.60;;;0.20;;
68543;SDS011;55534;52.222;5.156;2023-07-20T09:33:40;0.52;;;0.32;;
68543;SDS011;55534;52.222;5.156;2023-07-20T09:36:06;1.10;;;0.20;;
68543;SDS011;55534;52.222;5.156;2023-07-20T09:38:31;0.73;;;0.35;;
68543;SDS011;55534;52.222;5.156;2023-07-20T09:40:56;0.90;;;0.30;;
68543;SDS011;55534;52.222;5.156;2023-07-20T09:43:22;0.75;;;0.20;;
68543;SDS011;55534;52.222;5.156;2023-07-20T09:45:47;0.80;;;0.30;;
68543;SDS011;55534;52.222;5.156;2023-07-20T09:48:12;0.70;;;0.30;;
68543;SDS011;55534;52.222;5.156;2023-07-20T09:50:41;2.22;;;0.30;;
68543;SDS011;55534;52.222;5.156;2023-07-20T09:53:07;1.25;;;0.20;;
68543;SDS011;55534;52.222;5.156;2023-07-20T09:55:34;1.52;;;0.35;;
68543;SDS011;55534;52.222;5.156;2023-07-20T09:57:59;1.58;;;0.28;;
68543;SDS011;55534;52.222;5.156;2023-07-20T10:00:25;1.08;;;0.20;;
68543;SDS011;55534;52.222;5.156;2023-07-20T10:02:50;0.57;;;0.50;;
68543;SDS011;55534;52.222;5.156;2023-07-20T10:05:16;1.98;;;0.60;;
68543;SDS011;55534;52.222;5.156;2023-07-20T10:07:51;1.02;;;0.35;;
68543;SDS011;55534;52.222;5.156;2023-07-20T10:10:18;1.15;;;0.40;;
68543;SDS011;55534;52.222;5.156;2023-07-20T10:12:47;2.47;;;0.40;;
68543;SDS011;55534;52.222;5.156;2023-07-20T10:17:39;1.48;;;0.30;;
68543;SDS011;55534;52.222;5.156;2023-07-20T10:20:05;4.72;;;0.90;;
68543;SDS011;55534;52.222;5.156;2023-07-20T10:22:34;0.93;;;0.20;;
68543;SDS011;55534;52.222;5.156;2023-07-20T10:25:00;0.80;;;0.38;;
68543;SDS011;55534;52.222;5.156;2023-07-20T10:27:26;1.55;;;0.30;;
68543;SDS011;55534;52.222;5.156;2023-07-20T10:29:51;0.60;;;0.20;;
68543;SDS011;55534;52.222;5.156;2023-07-20T10:32:19;1.13;;;0.10;;
68543;SDS011;55534;52.222;5.156;2023-07-20T10:34:50;0.68;;;0.30;;
68543;SDS011;55534;52.222;5.156;2023-07-20T10:40:02;0.70;;;0.30;;
68543;SDS011;55534;52.222;5.156;2023-07-20T10:42:47;0.57;;;0.38;;
68543;SDS011;55534;52.222;5.156;2023-07-20T10:45:12;1.73;;;0.50;;
68543;SDS011;55534;52.222;5.156;2023-07-20T10:47:44;1.40;;;0.50;;
68543;SDS011;55534;52.222;5.156;2023-07-20T10:50:10;0.50;;;0.40;;
68543;SDS011;55534;52.222;5.156;2023-07-20T10:52:40;1.23;;;0.30;;
68543;SDS011;55534;52.222;5.156;2023-07-20T10:55:18;3.45;;;0.40;;
68543;SDS011;55534;52.222;5.156;2023-07-20T10:57:44;0.90;;;0.50;;
68543;SDS011;55534;52.222;5.156;2023-07-20T11:00:31;0.73;;;0.40;;
68543;SDS011;55534;52.222;5.156;2023-07-20T11:02:56;1.38;;;0.40;;
68543;SDS011;55534;52.222;5.156;2023-07-20T11:08:05;1.40;;;0.30;;
68543;SDS011;55534;52.222;5.156;2023-07-20T11:10:31;0.85;;;0.40;;
68543;SDS011;55534;52.222;5.156;2023-07-20T11:18:12;1.60;;;1.05;;
68543;SDS011;55534;52.222;5.156;2023-07-20T11:20:38;1.17;;;0.43;;
68543;SDS011;55534;52.222;5.156;2023-07-20T11:23:03;1.00;;;0.63;;
68543;SDS011;55534;52.222;5.156;2023-07-20T11:25:35;1.17;;;0.50;;
68543;SDS011;55534;52.222;5.156;2023-07-20T11:28:01;1.42;;;0.70;;
68543;SDS011;55534;52.222;5.156;2023-07-20T11:30:26;1.20;;;0.70;;
68543;SDS011;55534;52.222;5.156;2023-07-20T11:32:51;2.08;;;0.60;;
68543;SDS011;55534;52.222;5.156;2023-07-20T11:35:16;1.10;;;0.53;;
68543;SDS011;55534;52.222;5.156;2023-07-20T11:37:42;2.20;;;0.50;;
68543;SDS011;55534;52.222;5.156;2023-07-20T11:40:08;1.38;;;0.60;;
68543;SDS011;55534;52.222;5.156;2023-07-20T11:42:34;1.25;;;0.50;;
68543;SDS011;55534;52.222;5.156;2023-07-20T11:45:01;4.78;;;1.05;;
68543;SDS011;55534;52.222;5.156;2023-07-20T11:47:29;1.92;;;0.93;;
68543;SDS011;55534;52.222;5.156;2023-07-20T11:49:54;1.70;;;0.57;;
68543;SDS011;55534;52.222;5.156;2023-07-20T11:52:19;1.00;;;0.40;;
68543;SDS011;55534;52.222;5.156;2023-07-20T11:54:45;1.17;;;0.43;;
68543;SDS011;55534;52.222;5.156;2023-07-20T11:57:16;1.90;;;0.50;;
68543;SDS011;55534;52.222;5.156;2023-07-20T11:59:52;0.80;;;0.45;;
68543;SDS011;55534;52.222;5.156;2023-07-20T12:02:17;1.10;;;0.40;;
68543;SDS011;55534;52.222;5.156;2023-07-20T12:04:42;1.65;;;0.70;;
68543;SDS011;55534;52.222;5.156;2023-07-20T12:07:08;0.88;;;0.40;;
68543;SDS011;55534;52.222;5.156;2023-07-20T12:09:33;1.50;;;0.70;;
68543;SDS011;55534;52.222;5.156;2023-07-20T12:11:58;1.45;;;0.75;;
68543;SDS011;55534;52.222;5.156;2023-07-20T12:14:25;1.00;;;0.40;;
68543;SDS011;55534;52.222;5.156;2023-07-20T12:16:53;2.08;;;0.95;;
68543;SDS011;55534;52.222;5.156;2023-07-20T12:19:24;0.98;;;0.60;;
68543;SDS011;55534;52.222;5.156;2023-07-20T12:21:50;1.45;;;0.50;;
68543;SDS011;55534;52.222;5.156;2023-07-20T12:24:15;1.83;;;0.57;;
68543;SDS011;55534;52.222;5.156;2023-07-20T12:26:42;1.70;;;0.40;;
68543;SDS011;55534;52.222;5.156;2023-07-20T12:29:08;2.08;;;0.52;;
68543;SDS011;55534;52.222;5.156;2023-07-20T12:31:34;1.17;;;0.40;;
68543;SDS011;55534;52.222;5.156;2023-07-20T12:34:01;1.45;;;0.40;;
68543;SDS011;55534;52.222;5.156;2023-07-20T12:36:26;1.50;;;0.40;;
68543;SDS011;55534;52.222;5.156;2023-07-20T12:38:52;0.88;;;0.40;;
68543;SDS011;55534;52.222;5.156;2023-07-20T12:41:17;1.13;;;0.60;;
68543;SDS011;55534;52.222;5.156;2023-07-20T12:43:43;0.93;;;0.38;;
68543;SDS011;55534;52.222;5.156;2023-07-20T12:46:09;2.13;;;0.63;;
68543;SDS011;55534;52.222;5.156;2023-07-20T12:48:36;1.30;;;0.50;;
68543;SDS011;55534;52.222;5.156;2023-07-20T12:51:06;1.00;;;0.40;;
68543;SDS011;55534;52.222;5.156;2023-07-20T12:53:31;4.68;;;0.63;;
68543;SDS011;55534;52.222;5.156;2023-07-20T12:55:58;0.93;;;0.40;;
68543;SDS011;55534;52.222;5.156;2023-07-20T12:58:24;0.93;;;0.47;;
68543;SDS011;55534;52.222;5.156;2023-07-20T13:00:49;0.50;;;0.28;;
68543;SDS011;55534;52.222;5.156;2023-07-20T13:03:14;1.20;;;0.22;;
68543;SDS011;55534;52.222;5.156;2023-07-20T13:05:41;1.73;;;0.45;;
68543;SDS011;55534;52.222;5.156;2023-07-20T13:08:06;1.63;;;0.40;;
68543;SDS011;55534;52.222;5.156;2023-07-20T13:10:32;1.80;;;0.40;;
68543;SDS011;55534;52.222;5.156;2023-07-20T13:12:57;1.52;;;0.40;;
68543;SDS011;55534;52.222;5.156;2023-07-20T13:15:24;1.23;;;0.40;;
68543;SDS011;55534;52.222;5.156;2023-07-20T13:17:49;0.70;;;0.25;;
68543;SDS011;55534;52.222;5.156;2023-07-20T13:20:15;1.45;;;0.40;;
68543;SDS011;55534;52.222;5.156;2023-07-20T13:22:41;1.23;;;0.40;;
68543;SDS011;55534;52.222;5.156;2023-07-20T13:25:06;2.30;;;0.75;;
68543;SDS011;55534;52.222;5.156;2023-07-20T13:27:32;1.70;;;0.50;;
68543;SDS011;55534;52.222;5.156;2023-07-20T13:29:58;3.40;;;0.45;;
68543;SDS011;55534;52.222;5.156;2023-07-20T13:32:24;1.27;;;0.32;;
68543;SDS011;55534;52.222;5.156;2023-07-20T13:34:49;0.22;;;0.22;;
68543;SDS011;55534;52.222;5.156;2023-07-20T13:37:14;2.40;;;0.25;;
68543;SDS011;55534;52.222;5.156;2023-07-20T13:39:41;0.25;;;0.10;;
68543;SDS011;55534;52.222;5.156;2023-07-20T13:42:06;0.65;;;0.25;;
68543;SDS011;55534;52.222;5.156;2023-07-20T13:44:32;2.42;;;0.30;;
68543;SDS011;55534;52.222;5.156;2023-07-20T13:46:57;1.67;;;0.65;;
68543;SDS011;55534;52.222;5.156;2023-07-20T13:49:23;1.00;;;0.30;;
68543;SDS011;55534;52.222;5.156;2023-07-20T13:51:48;1.10;;;0.20;;
68543;SDS011;55534;52.222;5.156;2023-07-20T13:54:14;0.82;;;0.20;;
68543;SDS011;55534;52.222;5.156;2023-07-20T13:56:39;1.90;;;0.30;;
68543;SDS011;55534;52.222;5.156;2023-07-20T13:59:04;0.98;;;0.20;;
68543;SDS011;55534;52.222;5.156;2023-07-20T14:01:29;0.60;;;0.20;;
68543;SDS011;55534;52.222;5.156;2023-07-20T14:03:58;1.13;;;0.25;;
68543;SDS011;55534;52.222;5.156;2023-07-20T14:06:23;0.52;;;0.20;;
68543;SDS011;55534;52.222;5.156;2023-07-20T14:08:48;1.27;;;0.50;;
68543;SDS011;55534;52.222;5.156;2023-07-20T14:11:15;0.45;;;0.32;;
68543;SDS011;55534;52.222;5.156;2023-07-20T14:13:40;1.33;;;0.20;;
68543;SDS011;55534;52.222;5.156;2023-07-20T14:16:06;1.90;;;0.20;;
68543;SDS011;55534;52.222;5.156;2023-07-20T14:18:31;1.02;;;0.40;;
68543;SDS011;55534;52.222;5.156;2023-07-20T14:20:56;0.75;;;0.30;;
68543;SDS011;55534;52.222;5.156;2023-07-20T14:23:22;1.03;;;0.20;;
68543;SDS011;55534;52.222;5.156;2023-07-20T14:25:47;1.13;;;0.38;;
68543;SDS011;55534;52.222;5.156;2023-07-20T14:28:13;1.73;;;0.30;;
68543;SDS011;55534;52.222;5.156;2023-07-20T14:30:38;0.98;;;0.20;;
68543;SDS011;55534;52.222;5.156;2023-07-20T14:33:03;2.10;;;0.53;;
68543;SDS011;55534;52.222;5.156;2023-07-20T14:35:28;0.47;;;0.30;;
68543;SDS011;55534;52.222;5.156;2023-07-20T14:37:54;1.03;;;0.30;;
68543;SDS011;55534;52.222;5.156;2023-07-20T14:40:19;1.10;;;0.30;;
68543;SDS011;55534;52.222;5.156;2023-07-20T14:42:45;0.70;;;0.30;;
68543;SDS011;55534;52.222;5.156;2023-07-20T14:45:10;1.15;;;0.40;;
68543;SDS011;55534;52.222;5.156;2023-07-20T14:47:35;1.02;;;0.30;;
68543;SDS011;55534;52.222;5.156;2023-07-20T14:50:04;0.40;;;0.20;;
68543;SDS011;55534;52.222;5.156;2023-07-20T14:52:29;1.35;;;0.30;;
68543;SDS011;55534;52.222;5.156;2023-07-20T14:54:55;0.60;;;0.40;;
68543;SDS011;55534;52.222;5.156;2023-07-20T14:57:20;0.93;;;0.40;;
68543;SDS011;55534;52.222;5.156;2023-07-20T14:59:48;1.35;;;0.40;;
68543;SDS011;55534;52.222;5.156;2023-07-20T15:02:14;0.57;;;0.30;;
68543;SDS011;55534;52.222;5.156;2023-07-20T15:04:49;0.32;;;0.20;;